sensor_id;sensor_type;location;lat;lon;timestamp;P1;durP1;ratioP1;P2;durP2;ratioP2
8683;SDS011;4379;59.744;18.206;2023-08-12T00:01:21;4.30;;;2.23;;
8683;SDS011;4379;59.744;18.206;2023-08-12T00:03:52;4.17;;;2.17;;
8683;SDS011;4379;59.744;18.206;2023-08-12T00:06:20;5.67;;;2.27;;
8683;SDS011;4379;59.744;18.206;2023-08-12T00:08:48;4.27;;;2.10;;
8683;SDS011;4379;59.744;18.206;2023-08-12T00:11:15;5.63;;;2.57;;
8683;SDS011;4379;59.744;18.206;2023-08-12T00:13:43;3.70;;;2.20;;
8683;SDS011;4379;59.744;18.206;2023-08-12T00:16:10;5.57;;;2.60;;
8683;SDS011;4379;59.744;18.206;2023-08-12T00:18:38;5.47;;;2.23;;
8683;SDS011;4379;59.744;18.206;2023-08-12T00:21:09;3.60;;;2.57;;
8683;SDS011;4379;59.744;18.206;2023-08-12T00:23:37;3.47;;;2.63;;
8683;SDS011;4379;59.744;18.206;2023-08-12T00:26:08;3.07;;;2.60;;
8683;SDS011;4379;59.744;18.206;2023-08-12T00:28:36;4.33;;;2.90;;
8683;SDS011;4379;59.744;18.206;2023-08-12T00:31:03;3.63;;;2.40;;
8683;SDS011;4379;59.744;18.206;2023-08-12T00:33:31;3.73;;;2.60;;
8683;SDS011;4379;59.744;18.206;2023-08-12T00:35:58;6.17;;;2.60;;
8683;SDS011;4379;59.744;18.206;2023-08-12T00:38:26;2.60;;;2.20;;
8683;SDS011;4379;59.744;18.206;2023-08-12T00:40:53;4.93;;;2.67;;
8683;SDS011;4379;59.744;18.206;2023-08-12T00:43:21;4.53;;;2.27;;
8683;SDS011;4379;59.744;18.206;2023-08-12T00:45:48;4.77;;;2.53;;
8683;SDS011;4379;59.744;18.206;2023-08-12T00:48:17;2.70;;;2.50;;
8683;SDS011;4379;59.744;18.206;2023-08-12T00:50:46;4.93;;;3.10;;
8683;SDS011;4379;59.744;18.206;2023-08-12T00:53:13;3.00;;;2.80;;
8683;SDS011;4379;59.744;18.206;2023-08-12T00:55:43;4.43;;;3.07;;
8683;SDS011;4379;59.744;18.206;2023-08-12T00:58:10;5.70;;;2.93;;
8683;SDS011;4379;59.744;18.206;2023-08-12T01:00:41;4.57;;;2.90;;
8683;SDS011;4379;59.744;18.206;2023-08-12T01:03:09;2.77;;;2.50;;
8683;SDS011;4379;59.744;18.206;2023-08-12T01:05:38;4.73;;;3.00;;
8683;SDS011;4379;59.744;18.206;2023-08-12T01:08:09;3.90;;;2.50;;
8683;SDS011;4379;59.744;18.206;2023-08-12T01:10:39;3.53;;;2.50;;
8683;SDS011;4379;59.744;18.206;2023-08-12T01:13:29;4.83;;;2.97;;
8683;SDS011;4379;59.744;18.206;2023-08-12T01:16:04;2.90;;;2.60;;
8683;SDS011;4379;59.744;18.206;2023-08-12T01:18:34;3.63;;;2.70;;
8683;SDS011;4379;59.744;18.206;2023-08-12T01:21:03;4.90;;;3.07;;
8683;SDS011;4379;59.744;18.206;2023-08-12T01:23:35;3.47;;;3.00;;
8683;SDS011;4379;59.744;18.206;2023-08-12T01:26:03;2.90;;;2.50;;
8683;SDS011;4379;59.744;18.206;2023-08-12T01:28:31;4.37;;;2.40;;
8683;SDS011;4379;59.744;18.206;2023-08-12T01:36:54;2.97;;;2.67;;
8683;SDS011;4379;59.744;18.206;2023-08-12T01:39:24;4.20;;;2.70;;
8683;SDS011;4379;59.744;18.206;2023-08-12T01:41:54;2.63;;;2.33;;
8683;SDS011;4379;59.744;18.206;2023-08-12T01:44:22;3.63;;;2.80;;
8683;SDS011;4379;59.744;18.206;2023-08-12T01:46:50;2.77;;;2.47;;
8683;SDS011;4379;59.744;18.206;2023-08-12T01:49:18;3.77;;;3.00;;
8683;SDS011;4379;59.744;18.206;2023-08-12T01:51:45;7.83;;;2.90;;
8683;SDS011;4379;59.744;18.206;2023-08-12T01:54:12;2.57;;;2.30;;
8683;SDS011;4379;59.744;18.206;2023-08-12T01:56:40;3.53;;;2.47;;
8683;SDS011;4379;59.744;18.206;2023-08-12T01:59:08;2.87;;;2.60;;
8683;SDS011;4379;59.744;18.206;2023-08-12T02:01:36;4.27;;;2.57;;
8683;SDS011;4379;59.744;18.206;2023-08-12T02:04:03;3.03;;;2.40;;
8683;SDS011;4379;59.744;18.206;2023-08-12T02:06:33;3.40;;;2.93;;
8683;SDS011;4379;59.744;18.206;2023-08-12T02:09:01;2.97;;;2.50;;
8683;SDS011;4379;59.744;18.206;2023-08-12T02:11:28;3.40;;;2.60;;
8683;SDS011;4379;59.744;18.206;2023-08-12T02:13:56;4.83;;;2.77;;
8683;SDS011;4379;59.744;18.206;2023-08-12T02:16:23;2.67;;;2.47;;
8683;SDS011;4379;59.744;18.206;2023-08-12T02:18:51;3.07;;;2.67;;
8683;SDS011;4379;59.744;18.206;2023-08-12T02:21:18;3.80;;;2.43;;
8683;SDS011;4379;59.744;18.206;2023-08-12T02:23:46;3.57;;;2.33;;
8683;SDS011;4379;59.744;18.206;2023-08-12T02:26:13;3.30;;;2.63;;
8683;SDS011;4379;59.744;18.206;2023-08-12T02:28:40;3.17;;;2.70;;
8683;SDS011;4379;59.744;18.206;2023-08-12T02:31:08;3.93;;;2.33;;
8683;SDS011;4379;59.744;18.206;2023-08-12T02:33:36;2.77;;;2.57;;
8683;SDS011;4379;59.744;18.206;2023-08-12T02:36:03;2.87;;;2.30;;
8683;SDS011;4379;59.744;18.206;2023-08-12T02:38:31;2.60;;;2.40;;
8683;SDS011;4379;59.744;18.206;2023-08-12T02:40:59;2.70;;;2.50;;
8683;SDS011;4379;59.744;18.206;2023-08-12T02:43:27;4.27;;;3.00;;
8683;SDS011;4379;59.744;18.206;2023-08-12T02:45:54;4.77;;;2.67;;
8683;SDS011;4379;59.744;18.206;2023-08-12T02:48:22;4.03;;;2.70;;
8683;SDS011;4379;59.744;18.206;2023-08-12T02:50:49;3.93;;;2.70;;
8683;SDS011;4379;59.744;18.206;2023-08-12T02:53:16;2.87;;;2.57;;
8683;SDS011;4379;59.744;18.206;2023-08-12T02:55:44;2.80;;;2.60;;
8683;SDS011;4379;59.744;18.206;2023-08-12T02:58:12;4.23;;;2.17;;
8683;SDS011;4379;59.744;18.206;2023-08-12T03:00:42;3.63;;;2.80;;
8683;SDS011;4379;59.744;18.206;2023-08-12T03:03:13;5.87;;;2.90;;
8683;SDS011;4379;59.744;18.206;2023-08-12T03:05:47;2.70;;;2.50;;
8683;SDS011;4379;59.744;18.206;2023-08-12T03:08:15;3.23;;;2.93;;
8683;SDS011;4379;59.744;18.206;2023-08-12T03:10:44;4.33;;;2.80;;
8683;SDS011;4379;59.744;18.206;2023-08-12T03:13:11;3.13;;;2.63;;
8683;SDS011;4379;59.744;18.206;2023-08-12T03:15:39;4.53;;;2.70;;
8683;SDS011;4379;59.744;18.206;2023-08-12T03:18:10;2.80;;;2.60;;
8683;SDS011;4379;59.744;18.206;2023-08-12T03:20:37;2.60;;;2.33;;
8683;SDS011;4379;59.744;18.206;2023-08-12T03:23:05;2.63;;;2.43;;
8683;SDS011;4379;59.744;18.206;2023-08-12T03:25:32;4.60;;;2.77;;
8683;SDS011;4379;59.744;18.206;2023-08-12T03:28:02;4.43;;;2.60;;
8683;SDS011;4379;59.744;18.206;2023-08-12T03:30:30;5.13;;;2.83;;
8683;SDS011;4379;59.744;18.206;2023-08-12T03:33:01;4.67;;;2.77;;
8683;SDS011;4379;59.744;18.206;2023-08-12T03:35:29;4.23;;;3.20;;
8683;SDS011;4379;59.744;18.206;2023-08-12T03:38:00;3.63;;;2.80;;
8683;SDS011;4379;59.744;18.206;2023-08-12T03:40:29;3.30;;;2.63;;
8683;SDS011;4379;59.744;18.206;2023-08-12T03:42:57;3.00;;;2.80;;
8683;SDS011;4379;59.744;18.206;2023-08-12T03:45:24;2.97;;;2.50;;
8683;SDS011;4379;59.744;18.206;2023-08-12T03:47:52;2.87;;;2.60;;
8683;SDS011;4379;59.744;18.206;2023-08-12T03:50:20;2.83;;;2.63;;
8683;SDS011;4379;59.744;18.206;2023-08-12T03:52:47;5.03;;;3.40;;
8683;SDS011;4379;59.744;18.206;2023-08-12T03:55:15;2.93;;;2.70;;
8683;SDS011;4379;59.744;18.206;2023-08-12T03:57:42;2.87;;;2.70;;
8683;SDS011;4379;59.744;18.206;2023-08-12T04:00:10;3.27;;;2.73;;
8683;SDS011;4379;59.744;18.206;2023-08-12T04:02:38;2.77;;;2.47;;
8683;SDS011;4379;59.744;18.206;2023-08-12T04:05:05;2.93;;;2.73;;
8683;SDS011;4379;59.744;18.206;2023-08-12T04:07:35;2.83;;;2.63;;
8683;SDS011;4379;59.744;18.206;2023-08-12T04:10:04;3.13;;;2.60;;
8683;SDS011;4379;59.744;18.206;2023-08-12T04:12:34;3.17;;;2.60;;
8683;SDS011;4379;59.744;18.206;2023-08-12T04:15:03;2.30;;;2.10;;
8683;SDS011;4379;59.744;18.206;2023-08-12T04:17:32;2.70;;;2.33;;
8683;SDS011;4379;59.744;18.206;2023-08-12T04:20:00;2.30;;;2.20;;
8683;SDS011;4379;59.744;18.206;2023-08-12T04:22:34;2.40;;;2.20;;
8683;SDS011;4379;59.744;18.206;2023-08-12T04:25:17;2.40;;;1.90;;
8683;SDS011;4379;59.744;18.206;2023-08-12T04:27:47;2.20;;;2.10;;
8683;SDS011;4379;59.744;18.206;2023-08-12T04:30:18;3.00;;;2.10;;
8683;SDS011;4379;59.744;18.206;2023-08-12T04:32:46;3.00;;;2.20;;
8683;SDS011;4379;59.744;18.206;2023-08-12T04:35:15;3.33;;;2.60;;
8683;SDS011;4379;59.744;18.206;2023-08-12T04:37:42;2.87;;;2.40;;
8683;SDS011;4379;59.744;18.206;2023-08-12T04:40:10;3.35;;;2.60;;
8683;SDS011;4379;59.744;18.206;2023-08-12T04:42:38;4.83;;;2.60;;
8683;SDS011;4379;59.744;18.206;2023-08-12T04:45:06;2.53;;;2.33;;
8683;SDS011;4379;59.744;18.206;2023-08-12T04:47:34;3.22;;;2.35;;
8683;SDS011;4379;59.744;18.206;2023-08-12T04:50:02;2.97;;;2.15;;
8683;SDS011;4379;59.744;18.206;2023-08-12T04:52:30;3.35;;;2.35;;
8683;SDS011;4379;59.744;18.206;2023-08-12T04:55:02;4.32;;;2.13;;
8683;SDS011;4379;59.744;18.206;2023-08-12T04:57:31;2.03;;;1.88;;
8683;SDS011;4379;59.744;18.206;2023-08-12T04:59:58;2.47;;;1.85;;
8683;SDS011;4379;59.744;18.206;2023-08-12T05:02:26;2.25;;;2.05;;
8683;SDS011;4379;59.744;18.206;2023-08-12T05:04:53;2.25;;;1.75;;
8683;SDS011;4379;59.744;18.206;2023-08-12T05:07:21;4.00;;;1.83;;
8683;SDS011;4379;59.744;18.206;2023-08-12T05:09:49;1.83;;;1.73;;
8683;SDS011;4379;59.744;18.206;2023-08-12T05:12:16;1.67;;;1.58;;
8683;SDS011;4379;59.744;18.206;2023-08-12T05:14:44;1.27;;;1.25;;
8683;SDS011;4379;59.744;18.206;2023-08-12T05:17:11;2.83;;;1.70;;
8683;SDS011;4379;59.744;18.206;2023-08-12T05:19:39;1.67;;;1.60;;
8683;SDS011;4379;59.744;18.206;2023-08-12T05:22:06;2.35;;;1.50;;
8683;SDS011;4379;59.744;18.206;2023-08-12T05:24:34;3.85;;;1.73;;
8683;SDS011;4379;59.744;18.206;2023-08-12T05:27:10;1.70;;;1.58;;
8683;SDS011;4379;59.744;18.206;2023-08-12T05:29:41;2.92;;;1.50;;
8683;SDS011;4379;59.744;18.206;2023-08-12T05:32:10;1.63;;;1.52;;
8683;SDS011;4379;59.744;18.206;2023-08-12T05:34:38;1.60;;;1.20;;
8683;SDS011;4379;59.744;18.206;2023-08-12T05:37:05;1.70;;;1.17;;
8683;SDS011;4379;59.744;18.206;2023-08-12T05:39:33;1.13;;;1.10;;
8683;SDS011;4379;59.744;18.206;2023-08-12T05:42:00;1.88;;;1.30;;
8683;SDS011;4379;59.744;18.206;2023-08-12T05:44:27;1.63;;;1.50;;
8683;SDS011;4379;59.744;18.206;2023-08-12T05:46:55;2.00;;;1.42;;
8683;SDS011;4379;59.744;18.206;2023-08-12T05:49:22;1.40;;;1.30;;
8683;SDS011;4379;59.744;18.206;2023-08-12T05:51:49;1.58;;;1.45;;
8683;SDS011;4379;59.744;18.206;2023-08-12T05:54:20;1.70;;;1.33;;
8683;SDS011;4379;59.744;18.206;2023-08-12T05:56:47;1.50;;;1.40;;
8683;SDS011;4379;59.744;18.206;2023-08-12T05:59:15;2.22;;;1.30;;
8683;SDS011;4379;59.744;18.206;2023-08-12T06:01:42;1.95;;;1.17;;
8683;SDS011;4379;59.744;18.206;2023-08-12T06:04:10;1.20;;;1.10;;
8683;SDS011;4379;59.744;18.206;2023-08-12T06:06:37;1.60;;;1.30;;
8683;SDS011;4379;59.744;18.206;2023-08-12T06:09:05;1.42;;;1.20;;
8683;SDS011;4379;59.744;18.206;2023-08-12T06:11:32;1.35;;;1.17;;
8683;SDS011;4379;59.744;18.206;2023-08-12T06:14:00;1.45;;;1.27;;
8683;SDS011;4379;59.744;18.206;2023-08-12T06:16:27;0.98;;;0.90;;
8683;SDS011;4379;59.744;18.206;2023-08-12T06:18:55;1.48;;;1.33;;
8683;SDS011;4379;59.744;18.206;2023-08-12T06:21:22;1.50;;;1.40;;
8683;SDS011;4379;59.744;18.206;2023-08-12T06:23:50;1.30;;;1.20;;
8683;SDS011;4379;59.744;18.206;2023-08-12T06:26:17;1.17;;;1.10;;
8683;SDS011;4379;59.744;18.206;2023-08-12T06:28:44;1.20;;;1.10;;
8683;SDS011;4379;59.744;18.206;2023-08-12T06:31:15;2.67;;;1.38;;
8683;SDS011;4379;59.744;18.206;2023-08-12T06:33:45;1.65;;;1.23;;
8683;SDS011;4379;59.744;18.206;2023-08-12T06:36:12;1.85;;;1.30;;
8683;SDS011;4379;59.744;18.206;2023-08-12T06:38:40;2.03;;;1.30;;
8683;SDS011;4379;59.744;18.206;2023-08-12T06:41:10;1.52;;;1.10;;
8683;SDS011;4379;59.744;18.206;2023-08-12T06:43:38;1.30;;;1.20;;
8683;SDS011;4379;59.744;18.206;2023-08-12T06:46:05;1.40;;;1.05;;
8683;SDS011;4379;59.744;18.206;2023-08-12T06:48:33;1.30;;;1.20;;
8683;SDS011;4379;59.744;18.206;2023-08-12T06:51:00;1.63;;;1.30;;
8683;SDS011;4379;59.744;18.206;2023-08-12T06:53:33;1.98;;;1.70;;
8683;SDS011;4379;59.744;18.206;2023-08-12T06:56:01;2.50;;;1.48;;
8683;SDS011;4379;59.744;18.206;2023-08-12T06:58:31;1.63;;;1.35;;
8683;SDS011;4379;59.744;18.206;2023-08-12T07:01:02;2.63;;;1.33;;
8683;SDS011;4379;59.744;18.206;2023-08-12T07:03:29;1.38;;;1.20;;
8683;SDS011;4379;59.744;18.206;2023-08-12T07:05:57;1.67;;;1.48;;
8683;SDS011;4379;59.744;18.206;2023-08-12T07:08:24;1.42;;;1.33;;
8683;SDS011;4379;59.744;18.206;2023-08-12T07:10:53;1.77;;;1.45;;
8683;SDS011;4379;59.744;18.206;2023-08-12T07:13:24;1.30;;;1.20;;
8683;SDS011;4379;59.744;18.206;2023-08-12T07:15:54;1.52;;;1.42;;
8683;SDS011;4379;59.744;18.206;2023-08-12T07:18:22;1.65;;;1.45;;
8683;SDS011;4379;59.744;18.206;2023-08-12T07:20:50;2.45;;;1.30;;
8683;SDS011;4379;59.744;18.206;2023-08-12T07:23:17;1.67;;;1.48;;
8683;SDS011;4379;59.744;18.206;2023-08-12T07:25:47;2.20;;;1.50;;
8683;SDS011;4379;59.744;18.206;2023-08-12T07:28:15;1.95;;;1.48;;
8683;SDS011;4379;59.744;18.206;2023-08-12T07:30:42;2.33;;;1.67;;
8683;SDS011;4379;59.744;18.206;2023-08-12T07:33:10;1.38;;;1.15;;
8683;SDS011;4379;59.744;18.206;2023-08-12T07:35:37;1.30;;;1.25;;
8683;SDS011;4379;59.744;18.206;2023-08-12T07:38:05;1.35;;;1.25;;
8683;SDS011;4379;59.744;18.206;2023-08-12T07:40:33;1.23;;;1.20;;
8683;SDS011;4379;59.744;18.206;2023-08-12T07:43:00;2.33;;;1.23;;
8683;SDS011;4379;59.744;18.206;2023-08-12T07:45:27;1.33;;;1.20;;
8683;SDS011;4379;59.744;18.206;2023-08-12T07:47:55;1.55;;;1.45;;
8683;SDS011;4379;59.744;18.206;2023-08-12T07:50:22;1.65;;;1.50;;
8683;SDS011;4379;59.744;18.206;2023-08-12T07:52:50;1.83;;;1.50;;
8683;SDS011;4379;59.744;18.206;2023-08-12T07:55:18;3.08;;;1.30;;
8683;SDS011;4379;59.744;18.206;2023-08-12T07:57:46;1.92;;;1.70;;
8683;SDS011;4379;59.744;18.206;2023-08-12T08:00:13;1.45;;;1.35;;
8683;SDS011;4379;59.744;18.206;2023-08-12T08:02:41;1.42;;;1.30;;
8683;SDS011;4379;59.744;18.206;2023-08-12T08:05:08;2.70;;;1.25;;
8683;SDS011;4379;59.744;18.206;2023-08-12T08:07:36;1.40;;;1.30;;
8683;SDS011;4379;59.744;18.206;2023-08-12T08:10:04;1.00;;;1.00;;
8683;SDS011;4379;59.744;18.206;2023-08-12T08:12:32;2.55;;;1.45;;
8683;SDS011;4379;59.744;18.206;2023-08-12T08:15:00;2.05;;;1.55;;
8683;SDS011;4379;59.744;18.206;2023-08-12T08:17:29;1.40;;;1.30;;
8683;SDS011;4379;59.744;18.206;2023-08-12T08:19:57;1.75;;;1.38;;
8683;SDS011;4379;59.744;18.206;2023-08-12T08:22:25;1.73;;;1.10;;
8683;SDS011;4379;59.744;18.206;2023-08-12T08:24:52;1.92;;;1.48;;
8683;SDS011;4379;59.744;18.206;2023-08-12T08:27:19;2.83;;;1.42;;
8683;SDS011;4379;59.744;18.206;2023-08-12T08:29:47;1.73;;;1.40;;
8683;SDS011;4379;59.744;18.206;2023-08-12T08:32:14;2.05;;;1.25;;
8683;SDS011;4379;59.744;18.206;2023-08-12T08:34:42;3.38;;;1.40;;
8683;SDS011;4379;59.744;18.206;2023-08-12T08:37:10;1.95;;;1.20;;
8683;SDS011;4379;59.744;18.206;2023-08-12T08:39:37;2.03;;;1.35;;
8683;SDS011;4379;59.744;18.206;2023-08-12T08:42:05;1.40;;;1.30;;
8683;SDS011;4379;59.744;18.206;2023-08-12T08:44:33;5.10;;;1.65;;
8683;SDS011;4379;59.744;18.206;2023-08-12T08:47:01;1.88;;;1.67;;
8683;SDS011;4379;59.744;18.206;2023-08-12T08:49:30;3.05;;;1.33;;
8683;SDS011;4379;59.744;18.206;2023-08-12T08:51:59;1.90;;;1.30;;
8683;SDS011;4379;59.744;18.206;2023-08-12T08:54:26;2.75;;;2.55;;
8683;SDS011;4379;59.744;18.206;2023-08-12T08:56:55;1.48;;;1.20;;
8683;SDS011;4379;59.744;18.206;2023-08-12T08:59:31;1.00;;;1.00;;
8683;SDS011;4379;59.744;18.206;2023-08-12T09:01:58;1.63;;;1.50;;
8683;SDS011;4379;59.744;18.206;2023-08-12T09:04:27;1.63;;;1.27;;
8683;SDS011;4379;59.744;18.206;2023-08-12T09:06:56;2.50;;;1.30;;
8683;SDS011;4379;59.744;18.206;2023-08-12T09:09:25;3.35;;;1.60;;
8683;SDS011;4379;59.744;18.206;2023-08-12T09:11:54;1.38;;;1.17;;
8683;SDS011;4379;59.744;18.206;2023-08-12T09:14:22;1.50;;;1.20;;
8683;SDS011;4379;59.744;18.206;2023-08-12T09:16:50;2.17;;;1.45;;
8683;SDS011;4379;59.744;18.206;2023-08-12T09:19:17;0.90;;;0.90;;
8683;SDS011;4379;59.744;18.206;2023-08-12T09:21:48;2.25;;;1.20;;
8683;SDS011;4379;59.744;18.206;2023-08-12T09:24:25;3.03;;;1.63;;
8683;SDS011;4379;59.744;18.206;2023-08-12T09:26:54;1.80;;;1.15;;
8683;SDS011;4379;59.744;18.206;2023-08-12T09:29:23;1.30;;;1.20;;
8683;SDS011;4379;59.744;18.206;2023-08-12T09:31:53;1.17;;;1.08;;
8683;SDS011;4379;59.744;18.206;2023-08-12T09:34:21;2.60;;;1.50;;
8683;SDS011;4379;59.744;18.206;2023-08-12T09:36:51;1.58;;;1.40;;
8683;SDS011;4379;59.744;18.206;2023-08-12T09:39:19;1.67;;;1.20;;
8683;SDS011;4379;59.744;18.206;2023-08-12T09:41:46;1.23;;;1.13;;
8683;SDS011;4379;59.744;18.206;2023-08-12T09:44:14;1.48;;;1.35;;
8683;SDS011;4379;59.744;18.206;2023-08-12T09:46:42;1.50;;;1.40;;
8683;SDS011;4379;59.744;18.206;2023-08-12T09:49:10;2.25;;;1.35;;
8683;SDS011;4379;59.744;18.206;2023-08-12T09:51:37;2.80;;;1.27;;
8683;SDS011;4379;59.744;18.206;2023-08-12T09:54:09;1.80;;;1.30;;
8683;SDS011;4379;59.744;18.206;2023-08-12T09:56:40;1.02;;;1.02;;
8683;SDS011;4379;59.744;18.206;2023-08-12T09:59:09;1.33;;;1.23;;
8683;SDS011;4379;59.744;18.206;2023-08-12T10:01:39;1.70;;;1.35;;
8683;SDS011;4379;59.744;18.206;2023-08-12T10:04:09;1.83;;;1.35;;
8683;SDS011;4379;59.744;18.206;2023-08-12T10:06:41;1.50;;;1.40;;
8683;SDS011;4379;59.744;18.206;2023-08-12T10:09:09;1.75;;;1.55;;
8683;SDS011;4379;59.744;18.206;2023-08-12T10:11:37;1.42;;;1.33;;
8683;SDS011;4379;59.744;18.206;2023-08-12T10:14:06;2.65;;;1.50;;
8683;SDS011;4379;59.744;18.206;2023-08-12T10:16:36;1.45;;;1.35;;
8683;SDS011;4379;59.744;18.206;2023-08-12T10:19:05;1.20;;;1.17;;
8683;SDS011;4379;59.744;18.206;2023-08-12T10:21:39;1.48;;;1.38;;
8683;SDS011;4379;59.744;18.206;2023-08-12T10:24:07;1.70;;;1.60;;
8683;SDS011;4379;59.744;18.206;2023-08-12T10:26:40;1.45;;;1.35;;
8683;SDS011;4379;59.744;18.206;2023-08-12T10:29:08;2.10;;;1.33;;
8683;SDS011;4379;59.744;18.206;2023-08-12T10:31:36;1.70;;;1.60;;
8683;SDS011;4379;59.744;18.206;2023-08-12T10:34:17;1.60;;;1.50;;
8683;SDS011;4379;59.744;18.206;2023-08-12T10:36:55;1.15;;;1.15;;
8683;SDS011;4379;59.744;18.206;2023-08-12T10:39:27;1.65;;;1.50;;
8683;SDS011;4379;59.744;18.206;2023-08-12T10:41:58;2.08;;;1.75;;
8683;SDS011;4379;59.744;18.206;2023-08-12T10:44:26;1.48;;;1.38;;
8683;SDS011;4379;59.744;18.206;2023-08-12T10:47:08;1.88;;;1.65;;
8683;SDS011;4379;59.744;18.206;2023-08-12T10:49:38;1.48;;;1.38;;
8683;SDS011;4379;59.744;18.206;2023-08-12T10:52:28;1.55;;;1.45;;
8683;SDS011;4379;59.744;18.206;2023-08-12T10:57:43;1.50;;;1.40;;
8683;SDS011;4379;59.744;18.206;2023-08-12T11:00:13;1.67;;;1.58;;
8683;SDS011;4379;59.744;18.206;2023-08-12T11:02:45;1.50;;;1.40;;
8683;SDS011;4379;59.744;18.206;2023-08-12T11:05:16;1.90;;;1.60;;
8683;SDS011;4379;59.744;18.206;2023-08-12T11:07:56;1.45;;;1.35;;
8683;SDS011;4379;59.744;18.206;2023-08-12T11:10:30;2.42;;;1.40;;
8683;SDS011;4379;59.744;18.206;2023-08-12T11:13:00;1.40;;;1.40;;
8683;SDS011;4379;59.744;18.206;2023-08-12T11:15:36;1.95;;;1.50;;
8683;SDS011;4379;59.744;18.206;2023-08-12T11:18:06;2.10;;;1.90;;
8683;SDS011;4379;59.744;18.206;2023-08-12T11:20:40;1.65;;;1.55;;
8683;SDS011;4379;59.744;18.206;2023-08-12T11:23:08;1.60;;;1.50;;
8683;SDS011;4379;59.744;18.206;2023-08-12T11:25:37;1.58;;;1.48;;
8683;SDS011;4379;59.744;18.206;2023-08-12T11:28:06;1.40;;;1.20;;
8683;SDS011;4379;59.744;18.206;2023-08-12T11:30:35;1.40;;;1.30;;
8683;SDS011;4379;59.744;18.206;2023-08-12T11:33:04;1.73;;;1.40;;
8683;SDS011;4379;59.744;18.206;2023-08-12T11:35:34;1.45;;;1.35;;
8683;SDS011;4379;59.744;18.206;2023-08-12T11:38:04;1.63;;;1.52;;
8683;SDS011;4379;59.744;18.206;2023-08-12T11:40:33;1.70;;;1.60;;
8683;SDS011;4379;59.744;18.206;2023-08-12T11:43:03;1.42;;;1.33;;
8683;SDS011;4379;59.744;18.206;2023-08-12T11:45:33;1.40;;;1.30;;
8683;SDS011;4379;59.744;18.206;2023-08-12T11:48:01;1.75;;;1.65;;
8683;SDS011;4379;59.744;18.206;2023-08-12T11:50:31;1.63;;;1.52;;
8683;SDS011;4379;59.744;18.206;2023-08-12T11:52:59;1.88;;;1.77;;
8683;SDS011;4379;59.744;18.206;2023-08-12T11:55:31;2.15;;;1.60;;
8683;SDS011;4379;59.744;18.206;2023-08-12T11:58:01;1.63;;;1.52;;
8683;SDS011;4379;59.744;18.206;2023-08-12T12:00:36;1.45;;;1.40;;
8683;SDS011;4379;59.744;18.206;2023-08-12T12:03:08;1.42;;;1.35;;
8683;SDS011;4379;59.744;18.206;2023-08-12T12:05:40;1.65;;;1.55;;
8683;SDS011;4379;59.744;18.206;2023-08-12T12:08:08;1.80;;;1.60;;
8683;SDS011;4379;59.744;18.206;2023-08-12T12:10:38;1.70;;;1.60;;
8683;SDS011;4379;59.744;18.206;2023-08-12T12:13:06;1.80;;;1.70;;
8683;SDS011;4379;59.744;18.206;2023-08-12T12:15:41;1.48;;;1.45;;
8683;SDS011;4379;59.744;18.206;2023-08-12T12:18:12;2.40;;;1.38;;
8683;SDS011;4379;59.744;18.206;2023-08-12T12:23:28;1.67;;;1.58;;
8683;SDS011;4379;59.744;18.206;2023-08-12T12:25:59;1.50;;;1.50;;
8683;SDS011;4379;59.744;18.206;2023-08-12T12:28:28;1.60;;;1.50;;
8683;SDS011;4379;59.744;18.206;2023-08-12T12:30:58;1.58;;;1.30;;
8683;SDS011;4379;59.744;18.206;2023-08-12T12:33:26;1.63;;;1.52;;
8683;SDS011;4379;59.744;18.206;2023-08-12T12:35:54;1.70;;;1.58;;
8683;SDS011;4379;59.744;18.206;2023-08-12T12:38:26;1.50;;;1.40;;
8683;SDS011;4379;59.744;18.206;2023-08-12T12:40:54;1.50;;;1.40;;
8683;SDS011;4379;59.744;18.206;2023-08-12T12:43:21;1.63;;;1.52;;
8683;SDS011;4379;59.744;18.206;2023-08-12T12:45:49;1.27;;;1.27;;
8683;SDS011;4379;59.744;18.206;2023-08-12T12:48:17;1.70;;;1.60;;
8683;SDS011;4379;59.744;18.206;2023-08-12T12:50:46;1.65;;;1.55;;
8683;SDS011;4379;59.744;18.206;2023-08-12T12:53:15;2.10;;;1.98;;
8683;SDS011;4379;59.744;18.206;2023-08-12T12:55:42;1.50;;;1.50;;
8683;SDS011;4379;59.744;18.206;2023-08-12T12:58:11;1.50;;;1.50;;
8683;SDS011;4379;59.744;18.206;2023-08-12T13:00:39;1.60;;;1.50;;
8683;SDS011;4379;59.744;18.206;2023-08-12T13:03:06;1.67;;;1.60;;
8683;SDS011;4379;59.744;18.206;2023-08-12T13:05:34;1.70;;;1.60;;
8683;SDS011;4379;59.744;18.206;2023-08-12T13:08:02;1.90;;;1.80;;
8683;SDS011;4379;59.744;18.206;2023-08-12T13:10:29;1.50;;;1.40;;
8683;SDS011;4379;59.744;18.206;2023-08-12T13:12:57;1.70;;;1.60;;
8683;SDS011;4379;59.744;18.206;2023-08-12T13:15:34;2.15;;;1.63;;
8683;SDS011;4379;59.744;18.206;2023-08-12T13:18:02;1.77;;;1.67;;
8683;SDS011;4379;59.744;18.206;2023-08-12T13:20:32;2.50;;;2.40;;
8683;SDS011;4379;59.744;18.206;2023-08-12T13:23:00;2.10;;;2.00;;
8683;SDS011;4379;59.744;18.206;2023-08-12T13:25:30;1.55;;;1.45;;
8683;SDS011;4379;59.744;18.206;2023-08-12T13:28:01;2.20;;;2.10;;
8683;SDS011;4379;59.744;18.206;2023-08-12T13:30:30;2.20;;;2.03;;
8683;SDS011;4379;59.744;18.206;2023-08-12T13:32:58;1.85;;;1.75;;
8683;SDS011;4379;59.744;18.206;2023-08-12T13:35:27;1.70;;;1.60;;
8683;SDS011;4379;59.744;18.206;2023-08-12T13:37:54;1.42;;;1.42;;
8683;SDS011;4379;59.744;18.206;2023-08-12T13:40:22;1.80;;;1.63;;
8683;SDS011;4379;59.744;18.206;2023-08-12T13:42:49;1.50;;;1.40;;
8683;SDS011;4379;59.744;18.206;2023-08-12T13:45:17;1.75;;;1.58;;
8683;SDS011;4379;59.744;18.206;2023-08-12T13:47:45;1.42;;;1.40;;
8683;SDS011;4379;59.744;18.206;2023-08-12T13:50:21;1.60;;;1.50;;
8683;SDS011;4379;59.744;18.206;2023-08-12T13:52:49;2.00;;;1.90;;
8683;SDS011;4379;59.744;18.206;2023-08-12T13:55:19;1.70;;;1.60;;
8683;SDS011;4379;59.744;18.206;2023-08-12T13:57:47;1.70;;;1.60;;
8683;SDS011;4379;59.744;18.206;2023-08-12T14:00:15;1.70;;;1.70;;
8683;SDS011;4379;59.744;18.206;2023-08-12T14:02:42;1.70;;;1.60;;
8683;SDS011;4379;59.744;18.206;2023-08-12T14:05:10;1.73;;;1.63;;
8683;SDS011;4379;59.744;18.206;2023-08-12T14:07:39;1.60;;;1.55;;
8683;SDS011;4379;59.744;18.206;2023-08-12T14:10:06;1.80;;;1.70;;
8683;SDS011;4379;59.744;18.206;2023-08-12T14:12:37;1.83;;;1.73;;
8683;SDS011;4379;59.744;18.206;2023-08-12T14:15:05;2.00;;;1.90;;
8683;SDS011;4379;59.744;18.206;2023-08-12T14:17:33;2.42;;;2.33;;
8683;SDS011;4379;59.744;18.206;2023-08-12T14:20:04;3.30;;;3.00;;
8683;SDS011;4379;59.744;18.206;2023-08-12T14:22:34;2.88;;;2.70;;
8683;SDS011;4379;59.744;18.206;2023-08-12T14:25:02;1.92;;;1.83;;
8683;SDS011;4379;59.744;18.206;2023-08-12T14:27:32;2.10;;;2.00;;
8683;SDS011;4379;59.744;18.206;2023-08-12T14:29:59;2.55;;;1.52;;
8683;SDS011;4379;59.744;18.206;2023-08-12T14:32:27;1.88;;;1.75;;
8683;SDS011;4379;59.744;18.206;2023-08-12T14:34:54;1.80;;;1.70;;
8683;SDS011;4379;59.744;18.206;2023-08-12T14:37:22;1.58;;;1.58;;
8683;SDS011;4379;59.744;18.206;2023-08-12T14:39:50;1.70;;;1.60;;
8683;SDS011;4379;59.744;18.206;2023-08-12T14:42:17;2.05;;;1.70;;
8683;SDS011;4379;59.744;18.206;2023-08-12T14:44:45;1.65;;;1.40;;
8683;SDS011;4379;59.744;18.206;2023-08-12T14:47:13;1.65;;;1.55;;
8683;SDS011;4379;59.744;18.206;2023-08-12T14:49:41;2.00;;;1.90;;
8683;SDS011;4379;59.744;18.206;2023-08-12T14:52:15;2.22;;;2.10;;
8683;SDS011;4379;59.744;18.206;2023-08-12T14:54:44;2.30;;;2.10;;
8683;SDS011;4379;59.744;18.206;2023-08-12T14:57:11;1.63;;;1.52;;
8683;SDS011;4379;59.744;18.206;2023-08-12T14:59:39;2.15;;;1.67;;
8683;SDS011;4379;59.744;18.206;2023-08-12T15:02:07;1.80;;;1.65;;
8683;SDS011;4379;59.744;18.206;2023-08-12T15:04:34;1.80;;;1.70;;
8683;SDS011;4379;59.744;18.206;2023-08-12T15:07:02;2.33;;;2.00;;
8683;SDS011;4379;59.744;18.206;2023-08-12T15:09:29;2.97;;;1.60;;
8683;SDS011;4379;59.744;18.206;2023-08-12T15:11:57;1.70;;;1.60;;
8683;SDS011;4379;59.744;18.206;2023-08-12T15:14:25;1.95;;;1.77;;
8683;SDS011;4379;59.744;18.206;2023-08-12T15:16:52;2.35;;;1.58;;
8683;SDS011;4379;59.744;18.206;2023-08-12T15:19:19;1.88;;;1.67;;
8683;SDS011;4379;59.744;18.206;2023-08-12T15:21:47;3.28;;;1.60;;